Airfield :







YOU CAN JOIN US ON...

 
LOGIN :

Register | Disclaimer

   EN    FR    IT 

 









Legend :    VFR   Marginal VFR   IFR   Intensive IFR   Very Intensive IFR
Visi :
Ceiling :
>= 8 km
>= 3000ft
5 to 8 km
1000 to 3000 ft
1500m to 5 km
500 to 1000 ft
800 to 1500m
200 to 500 ft
< 800m
< 200 ft
Symbols :   Thunderstorms  Fog  Heavy snow  Heavy precipitations  Wind > 20 kt






- Airport Elevation : 792 ft
- IATA code : YSC


CYSC - Sherbrooke

CURRENT METAR :
  • 281200Z AUTO 26005KT 9SM SCT029 SCT250 07/07 A2985 RMK SLP113

EXPIRED METARs :
  • 281100Z AUTO 26003KT 9SM SCT027 07/07 A2983 RMK SLP108
  • 281000Z AUTO 25004KT 9SM OVC025 08/08 A2981 RMK SLP101

TAF TAF CYSC
Valid from the 28 at 11:00 until the 28 at 23:00 UTC


281038Z 2811/2823 VRB03KT P6SM OVC025
TEMPO 2811/2814 4SM -DZ BR BKN007 OVC015
FM281400 33007KT P6SM SCT020
TEMPO 2814/2816 BKN020 RMK FCST BASED ON AUTO OBS. NXT FCST BY 281800Z
CZUL FIR / North America



MET'MAP, your aeronautical weather chart ! - Copyright ORBIFLY December 2007 - Disclaimer

ORBIFLY MET'MAP TEAM :

Programming & Development : Alexandra Zaïnal
Concept & original design : Baudouin d'Aumeries
Assistance for programming : Marc-Olivier Méhu
Technical & hardware support : Manuel Goepfert

Contact : metmap@orbifly.com




SOURCES & CREDITS :

   NOAA